sensor_id;sensor_type;location;lat;lon;timestamp;P1;durP1;ratioP1;P2;durP2;ratioP2
31004;SDS011;17676;52.254;4.490;2023-04-30T00:01:52;28.17;;;17.48;;
31004;SDS011;17676;52.254;4.490;2023-04-30T00:04:18;24.60;;;15.93;;
31004;SDS011;17676;52.254;4.490;2023-04-30T00:06:43;25.38;;;16.15;;
31004;SDS011;17676;52.254;4.490;2023-04-30T00:09:09;27.65;;;15.70;;
31004;SDS011;17676;52.254;4.490;2023-04-30T00:11:35;27.58;;;16.90;;
31004;SDS011;17676;52.254;4.490;2023-04-30T00:14:02;26.13;;;16.67;;
31004;SDS011;17676;52.254;4.490;2023-04-30T00:16:27;27.90;;;16.40;;
31004;SDS011;17676;52.254;4.490;2023-04-30T00:18:53;24.02;;;16.08;;
31004;SDS011;17676;52.254;4.490;2023-04-30T00:21:18;25.33;;;16.25;;
31004;SDS011;17676;52.254;4.490;2023-04-30T00:23:44;23.08;;;16.42;;
31004;SDS011;17676;52.254;4.490;2023-04-30T00:26:10;26.20;;;17.65;;
31004;SDS011;17676;52.254;4.490;2023-04-30T00:28:35;24.77;;;17.10;;
31004;SDS011;17676;52.254;4.490;2023-04-30T00:31:01;24.08;;;16.83;;
31004;SDS011;17676;52.254;4.490;2023-04-30T00:33:30;24.90;;;17.38;;
31004;SDS011;17676;52.254;4.490;2023-04-30T00:35:57;24.67;;;18.13;;
31004;SDS011;17676;52.254;4.490;2023-04-30T00:38:23;24.77;;;16.85;;
31004;SDS011;17676;52.254;4.490;2023-04-30T00:40:48;23.88;;;17.05;;
31004;SDS011;17676;52.254;4.490;2023-04-30T00:43:14;23.17;;;16.88;;
31004;SDS011;17676;52.254;4.490;2023-04-30T00:45:40;29.35;;;19.17;;
31004;SDS011;17676;52.254;4.490;2023-04-30T00:48:05;27.63;;;17.17;;
31004;SDS011;17676;52.254;4.490;2023-04-30T00:50:32;27.45;;;17.50;;
31004;SDS011;17676;52.254;4.490;2023-04-30T00:53:00;27.60;;;18.48;;
31004;SDS011;17676;52.254;4.490;2023-04-30T00:55:27;22.48;;;17.30;;
31004;SDS011;17676;52.254;4.490;2023-04-30T00:57:53;26.15;;;18.63;;
31004;SDS011;17676;52.254;4.490;2023-04-30T01:00:19;30.95;;;19.02;;
31004;SDS011;17676;52.254;4.490;2023-04-30T01:02:44;24.40;;;17.88;;
31004;SDS011;17676;52.254;4.490;2023-04-30T01:05:10;31.05;;;22.13;;
31004;SDS011;17676;52.254;4.490;2023-04-30T01:07:36;27.88;;;20.13;;
31004;SDS011;17676;52.254;4.490;2023-04-30T01:10:05;26.13;;;19.48;;
31004;SDS011;17676;52.254;4.490;2023-04-30T01:15:53;29.70;;;20.27;;
31004;SDS011;17676;52.254;4.490;2023-04-30T01:18:28;29.17;;;21.77;;
31004;SDS011;17676;52.254;4.490;2023-04-30T01:21:04;29.08;;;20.58;;
31004;SDS011;17676;52.254;4.490;2023-04-30T01:29:07;32.67;;;20.67;;
31004;SDS011;17676;52.254;4.490;2023-04-30T01:31:36;32.45;;;21.17;;
31004;SDS011;17676;52.254;4.490;2023-04-30T01:34:02;31.38;;;21.15;;
31004;SDS011;17676;52.254;4.490;2023-04-30T01:47:33;30.40;;;20.33;;
31004;SDS011;17676;52.254;4.490;2023-04-30T01:50:24;31.52;;;21.27;;
31004;SDS011;17676;52.254;4.490;2023-04-30T01:53:22;31.23;;;22.35;;
31004;SDS011;17676;52.254;4.490;2023-04-30T01:56:03;30.48;;;21.60;;
31004;SDS011;17676;52.254;4.490;2023-04-30T01:58:33;30.52;;;22.02;;
31004;SDS011;17676;52.254;4.490;2023-04-30T02:01:00;33.30;;;22.00;;
31004;SDS011;17676;52.254;4.490;2023-04-30T02:03:25;32.97;;;22.77;;
31004;SDS011;17676;52.254;4.490;2023-04-30T02:05:51;31.42;;;23.08;;
31004;SDS011;17676;52.254;4.490;2023-04-30T02:08:17;38.28;;;24.00;;
31004;SDS011;17676;52.254;4.490;2023-04-30T02:10:43;37.47;;;24.08;;
31004;SDS011;17676;52.254;4.490;2023-04-30T02:13:08;36.90;;;24.60;;
31004;SDS011;17676;52.254;4.490;2023-04-30T02:15:34;38.58;;;24.95;;
31004;SDS011;17676;52.254;4.490;2023-04-30T02:18:00;44.90;;;26.70;;
31004;SDS011;17676;52.254;4.490;2023-04-30T02:20:26;40.15;;;27.23;;
31004;SDS011;17676;52.254;4.490;2023-04-30T02:22:51;42.20;;;28.58;;
31004;SDS011;17676;52.254;4.490;2023-04-30T02:25:17;44.67;;;28.45;;
31004;SDS011;17676;52.254;4.490;2023-04-30T02:27:43;42.30;;;28.00;;
31004;SDS011;17676;52.254;4.490;2023-04-30T02:30:08;35.78;;;26.63;;
31004;SDS011;17676;52.254;4.490;2023-04-30T02:32:34;41.42;;;27.50;;
31004;SDS011;17676;52.254;4.490;2023-04-30T02:35:00;39.58;;;26.27;;
31004;SDS011;17676;52.254;4.490;2023-04-30T02:37:25;41.30;;;26.02;;
31004;SDS011;17676;52.254;4.490;2023-04-30T02:39:51;35.03;;;25.60;;
31004;SDS011;17676;52.254;4.490;2023-04-30T02:42:17;36.10;;;26.25;;
31004;SDS011;17676;52.254;4.490;2023-04-30T02:44:43;35.70;;;23.60;;
31004;SDS011;17676;52.254;4.490;2023-04-30T02:47:08;35.65;;;23.13;;
31004;SDS011;17676;52.254;4.490;2023-04-30T02:49:34;34.47;;;22.98;;
31004;SDS011;17676;52.254;4.490;2023-04-30T02:52:01;38.88;;;22.88;;
31004;SDS011;17676;52.254;4.490;2023-04-30T02:54:26;33.05;;;23.27;;
31004;SDS011;17676;52.254;4.490;2023-04-30T02:56:52;31.17;;;22.27;;
31004;SDS011;17676;52.254;4.490;2023-04-30T02:59:18;31.75;;;23.48;;
31004;SDS011;17676;52.254;4.490;2023-04-30T03:01:43;35.45;;;23.73;;
31004;SDS011;17676;52.254;4.490;2023-04-30T03:04:09;37.70;;;24.90;;
31004;SDS011;17676;52.254;4.490;2023-04-30T03:06:35;35.20;;;23.55;;
31004;SDS011;17676;52.254;4.490;2023-04-30T03:09:00;35.17;;;23.88;;
31004;SDS011;17676;52.254;4.490;2023-04-30T03:11:26;35.28;;;23.52;;
31004;SDS011;17676;52.254;4.490;2023-04-30T03:13:52;33.22;;;23.95;;
31004;SDS011;17676;52.254;4.490;2023-04-30T03:16:18;35.95;;;24.60;;
31004;SDS011;17676;52.254;4.490;2023-04-30T03:18:45;33.33;;;23.00;;
31004;SDS011;17676;52.254;4.490;2023-04-30T03:21:11;32.88;;;23.08;;
31004;SDS011;17676;52.254;4.490;2023-04-30T03:23:37;33.85;;;23.13;;
31004;SDS011;17676;52.254;4.490;2023-04-30T03:26:03;32.38;;;23.17;;
31004;SDS011;17676;52.254;4.490;2023-04-30T03:28:28;32.33;;;22.63;;
31004;SDS011;17676;52.254;4.490;2023-04-30T03:30:54;28.83;;;21.83;;
31004;SDS011;17676;52.254;4.490;2023-04-30T03:33:19;31.48;;;23.48;;
31004;SDS011;17676;52.254;4.490;2023-04-30T03:35:45;33.17;;;22.00;;
31004;SDS011;17676;52.254;4.490;2023-04-30T03:38:11;34.85;;;22.75;;
31004;SDS011;17676;52.254;4.490;2023-04-30T03:40:36;32.65;;;22.00;;
31004;SDS011;17676;52.254;4.490;2023-04-30T03:43:02;30.60;;;21.63;;
31004;SDS011;17676;52.254;4.490;2023-04-30T03:45:28;30.63;;;21.33;;
31004;SDS011;17676;52.254;4.490;2023-04-30T03:47:54;31.52;;;20.80;;
31004;SDS011;17676;52.254;4.490;2023-04-30T03:50:19;32.15;;;21.70;;
31004;SDS011;17676;52.254;4.490;2023-04-30T03:52:45;29.92;;;20.90;;
31004;SDS011;17676;52.254;4.490;2023-04-30T03:55:11;29.17;;;20.92;;
31004;SDS011;17676;52.254;4.490;2023-04-30T03:57:37;31.38;;;21.55;;
31004;SDS011;17676;52.254;4.490;2023-04-30T04:00:04;33.47;;;20.52;;
31004;SDS011;17676;52.254;4.490;2023-04-30T04:02:37;31.70;;;20.02;;
31004;SDS011;17676;52.254;4.490;2023-04-30T04:05:03;28.38;;;19.70;;
31004;SDS011;17676;52.254;4.490;2023-04-30T04:07:29;29.33;;;18.80;;
31004;SDS011;17676;52.254;4.490;2023-04-30T04:09:55;26.98;;;19.58;;
31004;SDS011;17676;52.254;4.490;2023-04-30T04:12:21;29.27;;;19.55;;
31004;SDS011;17676;52.254;4.490;2023-04-30T04:14:47;27.92;;;18.33;;
31004;SDS011;17676;52.254;4.490;2023-04-30T04:17:13;25.55;;;18.38;;
31004;SDS011;17676;52.254;4.490;2023-04-30T04:19:39;33.22;;;18.25;;
31004;SDS011;17676;52.254;4.490;2023-04-30T04:22:05;29.25;;;17.92;;
31004;SDS011;17676;52.254;4.490;2023-04-30T04:24:30;30.10;;;18.92;;
31004;SDS011;17676;52.254;4.490;2023-04-30T04:26:57;27.80;;;18.23;;
31004;SDS011;17676;52.254;4.490;2023-04-30T04:29:22;29.15;;;18.98;;
31004;SDS011;17676;52.254;4.490;2023-04-30T04:31:49;27.20;;;18.02;;
31004;SDS011;17676;52.254;4.490;2023-04-30T04:34:15;26.77;;;17.88;;
31004;SDS011;17676;52.254;4.490;2023-04-30T04:36:41;26.98;;;18.33;;
31004;SDS011;17676;52.254;4.490;2023-04-30T04:39:07;26.15;;;18.83;;
31004;SDS011;17676;52.254;4.490;2023-04-30T04:41:33;28.70;;;19.15;;
31004;SDS011;17676;52.254;4.490;2023-04-30T04:44:02;26.35;;;18.55;;
31004;SDS011;17676;52.254;4.490;2023-04-30T04:46:29;31.15;;;18.42;;
31004;SDS011;17676;52.254;4.490;2023-04-30T04:48:55;31.40;;;19.20;;
31004;SDS011;17676;52.254;4.490;2023-04-30T04:51:21;27.05;;;18.58;;
31004;SDS011;17676;52.254;4.490;2023-04-30T04:53:47;27.95;;;18.25;;
31004;SDS011;17676;52.254;4.490;2023-04-30T04:56:13;28.10;;;18.13;;
31004;SDS011;17676;52.254;4.490;2023-04-30T04:58:38;27.38;;;18.92;;
31004;SDS011;17676;52.254;4.490;2023-04-30T05:01:05;27.48;;;18.27;;
31004;SDS011;17676;52.254;4.490;2023-04-30T05:03:31;25.83;;;17.75;;
31004;SDS011;17676;52.254;4.490;2023-04-30T05:05:57;29.45;;;17.60;;
31004;SDS011;17676;52.254;4.490;2023-04-30T05:08:23;27.60;;;18.80;;
31004;SDS011;17676;52.254;4.490;2023-04-30T05:10:49;27.75;;;19.63;;
31004;SDS011;17676;52.254;4.490;2023-04-30T05:13:15;27.48;;;19.02;;
31004;SDS011;17676;52.254;4.490;2023-04-30T05:15:41;27.60;;;18.67;;
31004;SDS011;17676;52.254;4.490;2023-04-30T05:18:06;25.67;;;18.02;;
31004;SDS011;17676;52.254;4.490;2023-04-30T05:20:32;24.13;;;18.48;;
31004;SDS011;17676;52.254;4.490;2023-04-30T05:22:58;25.58;;;18.65;;
31004;SDS011;17676;52.254;4.490;2023-04-30T05:25:23;31.17;;;19.63;;
31004;SDS011;17676;52.254;4.490;2023-04-30T05:27:52;28.27;;;19.17;;
31004;SDS011;17676;52.254;4.490;2023-04-30T05:30:18;22.88;;;18.08;;
31004;SDS011;17676;52.254;4.490;2023-04-30T05:32:43;24.35;;;18.35;;
31004;SDS011;17676;52.254;4.490;2023-04-30T05:35:14;24.42;;;17.80;;
31004;SDS011;17676;52.254;4.490;2023-04-30T05:37:40;21.63;;;17.40;;
31004;SDS011;17676;52.254;4.490;2023-04-30T05:40:06;22.70;;;16.95;;
31004;SDS011;17676;52.254;4.490;2023-04-30T05:42:32;23.35;;;17.00;;
31004;SDS011;17676;52.254;4.490;2023-04-30T05:44:58;18.83;;;15.73;;
31004;SDS011;17676;52.254;4.490;2023-04-30T05:47:25;17.63;;;15.23;;
31004;SDS011;17676;52.254;4.490;2023-04-30T05:49:54;21.55;;;15.50;;
31004;SDS011;17676;52.254;4.490;2023-04-30T05:52:20;18.67;;;14.80;;
31004;SDS011;17676;52.254;4.490;2023-04-30T05:54:45;17.55;;;13.60;;
31004;SDS011;17676;52.254;4.490;2023-04-30T05:57:12;19.80;;;13.02;;
31004;SDS011;17676;52.254;4.490;2023-04-30T05:59:38;15.82;;;12.95;;
31004;SDS011;17676;52.254;4.490;2023-04-30T06:02:03;17.88;;;12.73;;
31004;SDS011;17676;52.254;4.490;2023-04-30T06:04:29;15.52;;;11.38;;
31004;SDS011;17676;52.254;4.490;2023-04-30T06:06:55;14.45;;;10.60;;
31004;SDS011;17676;52.254;4.490;2023-04-30T06:09:21;14.98;;;10.45;;
31004;SDS011;17676;52.254;4.490;2023-04-30T06:11:47;12.20;;;9.77;;
31004;SDS011;17676;52.254;4.490;2023-04-30T06:14:16;12.88;;;9.52;;
31004;SDS011;17676;52.254;4.490;2023-04-30T06:16:44;12.70;;;9.45;;
31004;SDS011;17676;52.254;4.490;2023-04-30T06:19:10;10.55;;;9.45;;
31004;SDS011;17676;52.254;4.490;2023-04-30T06:21:36;12.77;;;9.02;;
31004;SDS011;17676;52.254;4.490;2023-04-30T06:24:02;10.68;;;8.10;;
31004;SDS011;17676;52.254;4.490;2023-04-30T06:26:28;8.05;;;6.90;;
31004;SDS011;17676;52.254;4.490;2023-04-30T06:28:53;8.55;;;6.00;;
31004;SDS011;17676;52.254;4.490;2023-04-30T06:31:20;9.45;;;4.88;;
31004;SDS011;17676;52.254;4.490;2023-04-30T06:33:46;5.55;;;4.63;;
31004;SDS011;17676;52.254;4.490;2023-04-30T06:36:11;4.40;;;4.00;;
31004;SDS011;17676;52.254;4.490;2023-04-30T06:38:37;4.38;;;3.97;;
31004;SDS011;17676;52.254;4.490;2023-04-30T06:41:02;6.53;;;4.03;;
31004;SDS011;17676;52.254;4.490;2023-04-30T06:43:28;3.75;;;3.13;;
31004;SDS011;17676;52.254;4.490;2023-04-30T06:45:54;3.67;;;3.15;;
31004;SDS011;17676;52.254;4.490;2023-04-30T06:48:20;4.60;;;3.08;;
31004;SDS011;17676;52.254;4.490;2023-04-30T06:50:46;3.75;;;3.45;;
31004;SDS011;17676;52.254;4.490;2023-04-30T06:53:11;2.58;;;2.38;;
31004;SDS011;17676;52.254;4.490;2023-04-30T06:55:37;3.70;;;2.70;;
31004;SDS011;17676;52.254;4.490;2023-04-30T06:58:03;2.72;;;2.53;;
31004;SDS011;17676;52.254;4.490;2023-04-30T07:00:32;2.55;;;2.35;;
31004;SDS011;17676;52.254;4.490;2023-04-30T07:02:58;3.30;;;3.00;;
31004;SDS011;17676;52.254;4.490;2023-04-30T07:05:31;3.92;;;2.85;;
31004;SDS011;17676;52.254;4.490;2023-04-30T07:07:59;4.35;;;3.05;;
31004;SDS011;17676;52.254;4.490;2023-04-30T07:10:26;4.97;;;3.10;;
31004;SDS011;17676;52.254;4.490;2023-04-30T07:12:52;3.35;;;3.05;;
31004;SDS011;17676;52.254;4.490;2023-04-30T07:15:17;3.90;;;3.28;;
31004;SDS011;17676;52.254;4.490;2023-04-30T07:17:43;4.20;;;3.20;;
31004;SDS011;17676;52.254;4.490;2023-04-30T07:20:09;3.63;;;3.33;;
31004;SDS011;17676;52.254;4.490;2023-04-30T07:22:37;6.00;;;3.10;;
31004;SDS011;17676;52.254;4.490;2023-04-30T07:25:02;4.10;;;3.15;;
31004;SDS011;17676;52.254;4.490;2023-04-30T07:27:29;3.45;;;3.03;;
31004;SDS011;17676;52.254;4.490;2023-04-30T07:29:55;3.47;;;3.25;;
31004;SDS011;17676;52.254;4.490;2023-04-30T07:32:21;4.53;;;3.60;;
31004;SDS011;17676;52.254;4.490;2023-04-30T07:34:47;3.50;;;3.13;;
31004;SDS011;17676;52.254;4.490;2023-04-30T07:37:12;4.20;;;3.13;;
31004;SDS011;17676;52.254;4.490;2023-04-30T07:39:38;3.10;;;2.85;;
31004;SDS011;17676;52.254;4.490;2023-04-30T07:42:05;3.20;;;2.90;;
31004;SDS011;17676;52.254;4.490;2023-04-30T07:44:31;3.53;;;3.22;;
31004;SDS011;17676;52.254;4.490;2023-04-30T07:46:57;3.58;;;3.13;;
31004;SDS011;17676;52.254;4.490;2023-04-30T07:49:24;4.50;;;3.38;;
31004;SDS011;17676;52.254;4.490;2023-04-30T07:51:50;3.30;;;2.95;;
31004;SDS011;17676;52.254;4.490;2023-04-30T07:54:16;3.40;;;3.10;;
31004;SDS011;17676;52.254;4.490;2023-04-30T07:56:47;3.45;;;3.08;;
31004;SDS011;17676;52.254;4.490;2023-04-30T07:59:13;3.45;;;3.15;;
31004;SDS011;17676;52.254;4.490;2023-04-30T08:01:38;5.03;;;3.47;;
31004;SDS011;17676;52.254;4.490;2023-04-30T08:04:05;3.55;;;3.35;;
31004;SDS011;17676;52.254;4.490;2023-04-30T08:06:31;3.60;;;3.28;;
31004;SDS011;17676;52.254;4.490;2023-04-30T08:08:57;3.20;;;2.67;;
31004;SDS011;17676;52.254;4.490;2023-04-30T08:11:23;3.65;;;2.90;;
31004;SDS011;17676;52.254;4.490;2023-04-30T08:13:57;3.10;;;2.72;;
31004;SDS011;17676;52.254;4.490;2023-04-30T08:16:27;3.20;;;2.90;;
31004;SDS011;17676;52.254;4.490;2023-04-30T08:18:53;3.72;;;3.05;;
31004;SDS011;17676;52.254;4.490;2023-04-30T08:21:18;3.15;;;2.92;;
31004;SDS011;17676;52.254;4.490;2023-04-30T08:23:47;3.15;;;2.95;;
31004;SDS011;17676;52.254;4.490;2023-04-30T08:26:13;3.70;;;3.00;;
31004;SDS011;17676;52.254;4.490;2023-04-30T08:28:39;2.63;;;2.42;;
31004;SDS011;17676;52.254;4.490;2023-04-30T08:31:04;2.85;;;2.63;;
31004;SDS011;17676;52.254;4.490;2023-04-30T08:33:30;4.40;;;2.63;;
31004;SDS011;17676;52.254;4.490;2023-04-30T08:35:59;2.75;;;2.55;;
31004;SDS011;17676;52.254;4.490;2023-04-30T08:38:26;3.03;;;2.78;;
31004;SDS011;17676;52.254;4.490;2023-04-30T08:40:55;2.78;;;2.60;;
31004;SDS011;17676;52.254;4.490;2023-04-30T08:43:30;4.18;;;2.78;;
31004;SDS011;17676;52.254;4.490;2023-04-30T08:45:59;2.75;;;2.55;;
31004;SDS011;17676;52.254;4.490;2023-04-30T08:48:26;2.63;;;2.53;;
31004;SDS011;17676;52.254;4.490;2023-04-30T08:50:52;3.00;;;2.80;;
31004;SDS011;17676;52.254;4.490;2023-04-30T08:53:19;2.90;;;2.70;;
31004;SDS011;17676;52.254;4.490;2023-04-30T08:55:46;2.58;;;2.38;;
31004;SDS011;17676;52.254;4.490;2023-04-30T08:58:12;3.72;;;2.70;;
31004;SDS011;17676;52.254;4.490;2023-04-30T09:00:39;3.72;;;2.67;;
31004;SDS011;17676;52.254;4.490;2023-04-30T09:03:10;2.78;;;2.42;;
31004;SDS011;17676;52.254;4.490;2023-04-30T09:05:40;3.05;;;2.75;;
31004;SDS011;17676;52.254;4.490;2023-04-30T09:08:06;3.03;;;2.70;;
31004;SDS011;17676;52.254;4.490;2023-04-30T09:10:33;2.83;;;2.63;;
31004;SDS011;17676;52.254;4.490;2023-04-30T09:15:27;2.20;;;1.98;;
31004;SDS011;17676;52.254;4.490;2023-04-30T09:20:35;2.08;;;1.92;;
31004;SDS011;17676;52.254;4.490;2023-04-30T09:23:05;2.80;;;2.08;;
31004;SDS011;17676;52.254;4.490;2023-04-30T09:25:41;2.63;;;2.03;;
31004;SDS011;17676;52.254;4.490;2023-04-30T09:28:07;2.42;;;2.22;;
31004;SDS011;17676;52.254;4.490;2023-04-30T09:30:34;2.40;;;2.20;;
31004;SDS011;17676;52.254;4.490;2023-04-30T09:33:01;2.08;;;1.98;;
31004;SDS011;17676;52.254;4.490;2023-04-30T09:35:30;2.53;;;2.33;;
31004;SDS011;17676;52.254;4.490;2023-04-30T09:38:01;2.65;;;2.45;;
31004;SDS011;17676;52.254;4.490;2023-04-30T09:40:36;2.10;;;1.88;;
31004;SDS011;17676;52.254;4.490;2023-04-30T09:43:04;1.88;;;1.58;;
31004;SDS011;17676;52.254;4.490;2023-04-30T09:45:40;2.33;;;1.92;;
31004;SDS011;17676;52.254;4.490;2023-04-30T09:48:14;2.15;;;1.38;;
31004;SDS011;17676;52.254;4.490;2023-04-30T09:50:40;1.60;;;1.50;;
31004;SDS011;17676;52.254;4.490;2023-04-30T09:53:07;1.75;;;1.17;;
31004;SDS011;17676;52.254;4.490;2023-04-30T09:55:34;2.17;;;1.20;;
31004;SDS011;17676;52.254;4.490;2023-04-30T09:58:51;1.38;;;1.27;;
31004;SDS011;17676;52.254;4.490;2023-04-30T10:01:28;1.67;;;1.25;;
31004;SDS011;17676;52.254;4.490;2023-04-30T10:04:20;2.72;;;1.50;;
31004;SDS011;17676;52.254;4.490;2023-04-30T10:07:07;1.70;;;1.58;;
31004;SDS011;17676;52.254;4.490;2023-04-30T10:09:40;0.95;;;0.90;;
31004;SDS011;17676;52.254;4.490;2023-04-30T10:12:55;1.52;;;1.38;;
31004;SDS011;17676;52.254;4.490;2023-04-30T10:16:23;1.77;;;1.60;;
31004;SDS011;17676;52.254;4.490;2023-04-30T10:19:29;1.55;;;1.45;;
31004;SDS011;17676;52.254;4.490;2023-04-30T10:22:07;1.52;;;1.40;;
31004;SDS011;17676;52.254;4.490;2023-04-30T10:25:02;2.50;;;1.88;;
31004;SDS011;17676;52.254;4.490;2023-04-30T10:27:31;1.63;;;1.52;;
31004;SDS011;17676;52.254;4.490;2023-04-30T10:33:02;2.00;;;1.45;;
31004;SDS011;17676;52.254;4.490;2023-04-30T10:39:34;1.73;;;1.35;;
31004;SDS011;17676;52.254;4.490;2023-04-30T10:42:27;2.55;;;1.70;;
31004;SDS011;17676;52.254;4.490;2023-04-30T10:45:40;3.22;;;2.10;;
31004;SDS011;17676;52.254;4.490;2023-04-30T10:48:17;1.20;;;1.20;;
31004;SDS011;17676;52.254;4.490;2023-04-30T10:50:56;2.03;;;1.80;;
31004;SDS011;17676;52.254;4.490;2023-04-30T10:53:29;2.05;;;1.30;;
31004;SDS011;17676;52.254;4.490;2023-04-30T10:56:14;1.60;;;1.50;;
31004;SDS011;17676;52.254;4.490;2023-04-30T11:05:19;3.90;;;1.58;;
31004;SDS011;17676;52.254;4.490;2023-04-30T11:07:48;1.95;;;1.42;;
31004;SDS011;17676;52.254;4.490;2023-04-30T11:10:36;1.90;;;1.15;;
31004;SDS011;17676;52.254;4.490;2023-04-30T11:13:03;2.42;;;1.10;;
31004;SDS011;17676;52.254;4.490;2023-04-30T11:15:54;1.30;;;1.20;;
31004;SDS011;17676;52.254;4.490;2023-04-30T11:18:53;1.35;;;0.90;;
31004;SDS011;17676;52.254;4.490;2023-04-30T11:21:38;1.08;;;0.80;;
31004;SDS011;17676;52.254;4.490;2023-04-30T11:25:02;0.80;;;0.80;;
31004;SDS011;17676;52.254;4.490;2023-04-30T11:28:24;0.82;;;0.80;;
31004;SDS011;17676;52.254;4.490;2023-04-30T11:31:02;0.80;;;0.80;;
31004;SDS011;17676;52.254;4.490;2023-04-30T11:33:30;3.40;;;1.48;;
31004;SDS011;17676;52.254;4.490;2023-04-30T11:36:01;1.42;;;1.10;;
31004;SDS011;17676;52.254;4.490;2023-04-30T11:40:56;2.45;;;1.20;;
31004;SDS011;17676;52.254;4.490;2023-04-30T11:43:27;1.55;;;1.00;;
31004;SDS011;17676;52.254;4.490;2023-04-30T11:49:00;1.35;;;1.15;;
31004;SDS011;17676;52.254;4.490;2023-04-30T11:51:26;1.48;;;0.93;;
31004;SDS011;17676;52.254;4.490;2023-04-30T11:53:55;2.50;;;0.82;;
31004;SDS011;17676;52.254;4.490;2023-04-30T11:56:26;0.90;;;0.90;;
31004;SDS011;17676;52.254;4.490;2023-04-30T12:02:17;2.78;;;0.77;;
31004;SDS011;17676;52.254;4.490;2023-04-30T12:04:47;1.08;;;0.80;;
31004;SDS011;17676;52.254;4.490;2023-04-30T12:07:21;1.17;;;0.60;;
31004;SDS011;17676;52.254;4.490;2023-04-30T12:09:54;2.83;;;1.05;;
31004;SDS011;17676;52.254;4.490;2023-04-30T12:15:35;1.25;;;1.15;;
31004;SDS011;17676;52.254;4.490;2023-04-30T12:20:51;0.80;;;0.80;;
31004;SDS011;17676;52.254;4.490;2023-04-30T12:23:53;0.77;;;0.77;;
31004;SDS011;17676;52.254;4.490;2023-04-30T12:29:28;1.33;;;0.90;;
31004;SDS011;17676;52.254;4.490;2023-04-30T12:32:09;1.75;;;1.13;;
31004;SDS011;17676;52.254;4.490;2023-04-30T12:34:49;1.70;;;1.60;;
31004;SDS011;17676;52.254;4.490;2023-04-30T12:37:25;1.35;;;1.35;;
31004;SDS011;17676;52.254;4.490;2023-04-30T12:39:57;2.10;;;1.80;;
31004;SDS011;17676;52.254;4.490;2023-04-30T12:42:25;1.90;;;1.60;;
31004;SDS011;17676;52.254;4.490;2023-04-30T12:45:06;1.98;;;1.73;;
31004;SDS011;17676;52.254;4.490;2023-04-30T12:48:02;3.95;;;1.20;;
31004;SDS011;17676;52.254;4.490;2023-04-30T12:50:28;2.95;;;1.27;;
31004;SDS011;17676;52.254;4.490;2023-04-30T12:52:53;1.42;;;1.25;;
31004;SDS011;17676;52.254;4.490;2023-04-30T13:01:48;0.80;;;0.80;;
31004;SDS011;17676;52.254;4.490;2023-04-30T13:04:14;0.93;;;0.90;;
31004;SDS011;17676;52.254;4.490;2023-04-30T13:06:44;1.33;;;0.70;;
31004;SDS011;17676;52.254;4.490;2023-04-30T13:09:10;1.88;;;1.05;;
31004;SDS011;17676;52.254;4.490;2023-04-30T13:11:36;1.40;;;1.13;;
31004;SDS011;17676;52.254;4.490;2023-04-30T13:14:02;3.95;;;1.35;;
31004;SDS011;17676;52.254;4.490;2023-04-30T13:16:28;2.55;;;1.50;;
31004;SDS011;17676;52.254;4.490;2023-04-30T13:18:55;2.95;;;1.20;;
31004;SDS011;17676;52.254;4.490;2023-04-30T13:21:24;1.48;;;1.05;;
31004;SDS011;17676;52.254;4.490;2023-04-30T13:23:49;1.77;;;0.90;;
31004;SDS011;17676;52.254;4.490;2023-04-30T13:26:20;1.67;;;0.50;;
31004;SDS011;17676;52.254;4.490;2023-04-30T13:28:48;4.35;;;1.00;;
31004;SDS011;17676;52.254;4.490;2023-04-30T13:31:14;1.38;;;1.30;;
31004;SDS011;17676;52.254;4.490;2023-04-30T13:33:39;1.73;;;1.40;;
31004;SDS011;17676;52.254;4.490;2023-04-30T13:36:09;1.95;;;1.20;;
31004;SDS011;17676;52.254;4.490;2023-04-30T13:38:39;2.30;;;0.85;;
31004;SDS011;17676;52.254;4.490;2023-04-30T13:41:05;1.85;;;1.10;;
31004;SDS011;17676;52.254;4.490;2023-04-30T13:43:31;3.35;;;1.33;;
31004;SDS011;17676;52.254;4.490;2023-04-30T13:45:56;2.05;;;1.80;;
31004;SDS011;17676;52.254;4.490;2023-04-30T13:48:24;2.05;;;1.50;;
31004;SDS011;17676;52.254;4.490;2023-04-30T13:50:50;1.30;;;1.20;;
31004;SDS011;17676;52.254;4.490;2023-04-30T13:53:16;0.98;;;0.95;;
31004;SDS011;17676;52.254;4.490;2023-04-30T13:55:42;1.63;;;1.52;;
31004;SDS011;17676;52.254;4.490;2023-04-30T13:58:07;2.47;;;1.17;;
31004;SDS011;17676;52.254;4.490;2023-04-30T14:00:33;2.00;;;1.00;;
31004;SDS011;17676;52.254;4.490;2023-04-30T14:02:58;1.92;;;1.25;;
31004;SDS011;17676;52.254;4.490;2023-04-30T14:05:24;2.67;;;1.27;;
31004;SDS011;17676;52.254;4.490;2023-04-30T14:07:49;3.22;;;1.10;;
31004;SDS011;17676;52.254;4.490;2023-04-30T14:10:15;2.30;;;0.95;;
31004;SDS011;17676;52.254;4.490;2023-04-30T14:12:40;2.92;;;1.00;;
31004;SDS011;17676;52.254;4.490;2023-04-30T14:15:05;2.08;;;1.10;;
31004;SDS011;17676;52.254;4.490;2023-04-30T14:17:32;3.03;;;1.23;;
31004;SDS011;17676;52.254;4.490;2023-04-30T14:19:57;2.05;;;1.75;;
31004;SDS011;17676;52.254;4.490;2023-04-30T14:22:23;1.95;;;1.30;;
31004;SDS011;17676;52.254;4.490;2023-04-30T14:24:50;0.80;;;0.80;;
31004;SDS011;17676;52.254;4.490;2023-04-30T14:27:17;0.60;;;0.60;;
31004;SDS011;17676;52.254;4.490;2023-04-30T14:29:43;1.58;;;0.85;;
31004;SDS011;17676;52.254;4.490;2023-04-30T14:32:11;4.03;;;2.38;;
31004;SDS011;17676;52.254;4.490;2023-04-30T14:34:38;5.43;;;2.35;;
31004;SDS011;17676;52.254;4.490;2023-04-30T14:37:04;6.30;;;2.88;;
31004;SDS011;17676;52.254;4.490;2023-04-30T14:39:30;2.88;;;1.98;;
31004;SDS011;17676;52.254;4.490;2023-04-30T14:41:56;3.42;;;2.35;;
31004;SDS011;17676;52.254;4.490;2023-04-30T14:44:22;4.13;;;2.42;;
31004;SDS011;17676;52.254;4.490;2023-04-30T14:46:51;2.42;;;1.63;;
31004;SDS011;17676;52.254;4.490;2023-04-30T14:49:17;6.40;;;1.02;;
31004;SDS011;17676;52.254;4.490;2023-04-30T14:51:43;1.63;;;0.50;;
31004;SDS011;17676;52.254;4.490;2023-04-30T14:54:08;4.30;;;0.73;;
31004;SDS011;17676;52.254;4.490;2023-04-30T14:56:34;2.13;;;1.00;;
31004;SDS011;17676;52.254;4.490;2023-04-30T14:59:00;1.25;;;0.65;;
31004;SDS011;17676;52.254;4.490;2023-04-30T15:01:26;0.95;;;0.50;;
31004;SDS011;17676;52.254;4.490;2023-04-30T15:03:54;1.85;;;0.80;;
31004;SDS011;17676;52.254;4.490;2023-04-30T15:06:20;2.58;;;0.88;;
31004;SDS011;17676;52.254;4.490;2023-04-30T15:08:45;0.60;;;0.60;;
31004;SDS011;17676;52.254;4.490;2023-04-30T15:11:11;1.40;;;0.50;;
31004;SDS011;17676;52.254;4.490;2023-04-30T15:13:37;4.22;;;1.40;;
31004;SDS011;17676;52.254;4.490;2023-04-30T15:16:04;5.03;;;1.80;;
31004;SDS011;17676;52.254;4.490;2023-04-30T15:18:30;5.55;;;1.67;;
31004;SDS011;17676;52.254;4.490;2023-04-30T15:20:56;4.03;;;2.17;;
31004;SDS011;17676;52.254;4.490;2023-04-30T15:23:22;6.00;;;2.30;;
31004;SDS011;17676;52.254;4.490;2023-04-30T15:25:52;2.90;;;1.77;;
31004;SDS011;17676;52.254;4.490;2023-04-30T15:28:18;6.00;;;1.70;;
31004;SDS011;17676;52.254;4.490;2023-04-30T15:30:44;3.65;;;1.85;;
31004;SDS011;17676;52.254;4.490;2023-04-30T15:33:10;4.53;;;2.00;;
31004;SDS011;17676;52.254;4.490;2023-04-30T15:35:36;9.05;;;2.28;;
31004;SDS011;17676;52.254;4.490;2023-04-30T15:38:02;4.75;;;2.00;;
31004;SDS011;17676;52.254;4.490;2023-04-30T15:40:27;5.38;;;1.40;;
31004;SDS011;17676;52.254;4.490;2023-04-30T15:42:53;4.88;;;1.35;;
31004;SDS011;17676;52.254;4.490;2023-04-30T15:45:19;4.47;;;1.55;;
31004;SDS011;17676;52.254;4.490;2023-04-30T15:47:47;6.75;;;1.73;;
31004;SDS011;17676;52.254;4.490;2023-04-30T15:50:13;5.18;;;1.38;;